Time;durP1;ratioP1;P1;durP2;ratioP2;P2;SDS_P1;SDS_P2;PMS_P1;PMS_P2;Temp;Humidity;BMP_temperature;BMP_pressure;BME280_temperature;BME280_humidity;BME280_pressure;Samples;Min_cycle;Max_cycle;Signal;HPM_P1;HPM_P2
2024/03/04 00:02:20;;;;;;;130.68;26.65;;;;;;;8.38;100.00;96559.94;5043749;28;20048;-60
2024/03/04 00:04:45;;;;;;;84.43;26.08;;;;;;;8.30;100.00;96559.19;5047573;28;20354;-60
2024/03/04 00:07:10;;;;;;;95.97;21.90;;;;;;;8.19;100.00;96560.25;5046028;28;20212;-58
2024/03/04 00:09:35;;;;;;;117.50;49.78;;;;;;;8.19;100.00;96560.25;5045981;28;20013;-60
2024/03/04 00:12:01;;;;;;;86.28;34.83;;;;;;;8.12;100.00;96562.97;5030879;28;20124;-60
2024/03/04 00:14:26;;;;;;;91.45;20.75;;;;;;;8.11;100.00;96569.00;5048846;28;20024;-60
2024/03/04 00:16:52;;;;;;;101.55;26.25;;;;;;;8.10;100.00;96570.78;5044830;28;20770;-59
2024/03/04 00:19:18;;;;;;;103.07;24.20;;;;;;;8.16;100.00;96562.88;5047275;28;20035;-59
2024/03/04 00:21:47;;;;;;;84.55;20.08;;;;;;;8.15;100.00;96568.94;5045270;28;20068;-59
2024/03/04 00:24:13;;;;;;;138.50;23.67;;;;;;;8.16;100.00;96569.78;5044946;28;20024;-60
2024/03/04 00:26:39;;;;;;;78.88;22.20;;;;;;;8.12;100.00;96569.00;5045568;28;20461;-58
2024/03/04 00:29:04;;;;;;;109.57;49.67;;;;;;;8.12;100.00;96570.75;5045735;28;20066;-62
2024/03/04 00:31:33;;;;;;;99.68;23.88;;;;;;;8.03;100.00;96574.31;5042470;28;20035;-61
2024/03/04 00:33:59;;;;;;;88.40;24.70;;;;;;;8.04;100.00;96576.03;5045643;28;20020;-58
2024/03/04 00:36:26;;;;;;;111.88;26.23;;;;;;;7.94;100.00;96580.50;5045247;28;20093;-60
2024/03/04 00:38:52;;;;;;;92.57;28.42;;;;;;;7.92;100.00;96593.47;5047471;28;20021;-59
2024/03/04 00:41:24;;;;;;;133.30;49.03;;;;;;;7.88;100.00;96596.13;5042596;28;20052;-60
2024/03/04 00:43:50;;;;;;;121.38;37.80;;;;;;;7.82;100.00;96591.91;5043898;28;20443;-59
2024/03/04 00:46:15;;;;;;;96.65;41.55;;;;;;;7.84;100.00;96589.28;5045765;28;20542;-59
2024/03/04 00:48:44;;;;;;;95.60;38.75;;;;;;;7.81;100.00;96587.59;5044940;28;20028;-60
2024/03/04 00:51:11;;;;;;;128.68;33.90;;;;;;;7.76;100.00;96589.41;5043698;28;20350;-61
2024/03/04 00:53:37;;;;;;;87.68;33.13;;;;;;;7.73;100.00;96590.31;5047492;28;20130;-59
2024/03/04 00:56:03;;;;;;;103.65;48.53;;;;;;;7.71;100.00;96592.06;5044550;28;20041;-59
2024/03/04 00:58:28;;;;;;;149.45;57.70;;;;;;;7.67;100.00;96592.97;5044207;28;20399;-59
2024/03/04 01:00:53;;;;;;;106.82;48.72;;;;;;;7.73;100.00;96594.63;5045758;28;20467;-61
2024/03/04 01:03:19;;;;;;;109.45;32.17;;;;;;;7.77;100.00;96598.88;5044848;28;20029;-59
2024/03/04 01:05:45;;;;;;;125.60;67.35;;;;;;;7.63;100.00;96606.81;5044485;28;20522;-61
2024/03/04 01:08:11;;;;;;;115.32;39.70;;;;;;;7.60;100.00;96605.16;5044390;28;20103;-59
2024/03/04 01:10:36;;;;;;;106.80;32.78;;;;;;;7.69;100.00;96610.19;5046034;28;20051;-61
2024/03/04 01:13:02;;;;;;;154.93;99.97;;;;;;;7.65;100.00;96608.50;5046433;28;20333;-59
2024/03/04 01:15:27;;;;;;;141.75;74.35;;;;;;;7.62;100.00;96606.00;5045378;28;20033;-58
2024/03/04 01:17:53;;;;;;;97.28;33.22;;;;;;;7.57;100.00;96612.94;5043790;28;20029;-61
2024/03/04 01:20:20;;;;;;;128.73;49.85;;;;;;;7.58;100.00;96608.63;5042138;28;20024;-58
2024/03/04 01:22:46;;;;;;;101.90;36.83;;;;;;;7.56;100.00;96616.41;5043224;28;20028;-60
2024/03/04 01:25:12;;;;;;;127.88;39.42;;;;;;;7.53;100.00;96619.03;5042607;28;20033;-60
2024/03/04 01:27:37;;;;;;;68.55;24.23;;;;;;;7.61;100.00;96617.19;5045260;28;20365;-59
2024/03/04 01:30:04;;;;;;;135.98;36.97;;;;;;;7.45;100.00;96624.31;5043967;28;20025;-58
2024/03/04 01:32:29;;;;;;;132.52;31.73;;;;;;;7.48;100.00;96618.25;5043323;28;20503;-60
2024/03/04 01:34:55;;;;;;;121.68;63.67;;;;;;;7.39;100.00;96619.22;5044749;28;20032;-58
2024/03/04 01:37:21;;;;;;;255.48;203.77;;;;;;;7.53;100.00;96619.03;5043235;28;20373;-60
2024/03/04 01:39:47;;;;;;;138.27;68.07;;;;;;;7.45;100.00;96626.06;5044374;28;20277;-58
2024/03/04 01:42:12;;;;;;;99.07;35.20;;;;;;;7.48;100.00;96621.69;5045613;28;20049;-57
2024/03/04 01:44:37;;;;;;;104.25;42.53;;;;;;;7.38;100.00;96623.53;5045359;28;20472;-58
2024/03/04 01:47:07;;;;;;;108.57;39.72;;;;;;;7.46;100.00;96627.78;5045495;28;20067;-57
2024/03/04 01:49:35;;;;;;;83.32;38.60;;;;;;;7.42;100.00;96637.28;5045025;28;20249;-57
2024/03/04 01:52:01;;;;;;;149.07;80.63;;;;;;;7.44;100.00;96640.72;5042279;28;20074;-58
2024/03/04 01:54:26;;;;;;;106.95;51.88;;;;;;;7.40;100.00;96632.16;5043179;28;20556;-61
2024/03/04 01:56:53;;;;;;;94.25;38.63;;;;;;;7.41;100.00;96641.63;5043850;28;20087;-57
2024/03/04 01:59:19;;;;;;;156.50;34.75;;;;;;;7.51;100.00;96644.94;5042195;28;20113;-59
2024/03/04 02:01:45;;;;;;;100.40;33.78;;;;;;;7.46;100.00;96636.38;5044713;28;20028;-57
2024/03/04 02:04:12;;;;;;;107.55;44.58;;;;;;;7.32;100.00;96643.44;5044014;28;20036;-59
2024/03/04 02:06:38;;;;;;;127.10;36.80;;;;;;;7.20;100.00;96647.03;5042393;28;20187;-57
2024/03/04 02:09:03;;;;;;;86.28;26.52;;;;;;;7.22;100.00;96650.44;5043873;28;20036;-58
2024/03/04 02:11:29;;;;;;;114.85;26.40;;;;;;;7.21;100.00;96657.38;5045009;28;20048;-59
2024/03/04 02:13:54;;;;;;;94.32;25.75;;;;;;;7.25;100.00;96653.00;5041522;28;20533;-58
2024/03/04 02:16:20;;;;;;;114.70;29.15;;;;;;;7.18;100.00;96661.69;5041199;28;20325;-60
2024/03/04 02:18:46;;;;;;;87.97;29.70;;;;;;;7.15;100.00;96658.28;5045535;28;20020;-60
2024/03/04 02:21:14;;;;;;;127.60;34.45;;;;;;;7.08;100.00;96659.22;5042060;28;20039;-60
2024/03/04 02:23:40;;;;;;;92.57;34.70;;;;;;;7.02;100.00;96661.88;5044592;28;20076;-59
2024/03/04 02:26:06;;;;;;;119.63;53.83;;;;;;;6.95;100.00;96661.09;5043561;28;20041;-60
2024/03/04 02:28:32;;;;;;;173.90;104.88;;;;;;;6.79;100.00;96668.13;5042877;28;20139;-58
2024/03/04 02:30:59;;;;;;;126.57;93.10;;;;;;;6.73;100.00;96663.03;5042734;28;20032;-57
2024/03/04 02:33:26;;;;;;;199.52;141.38;;;;;;;6.67;100.00;96665.66;5043261;28;20025;-59
2024/03/04 02:35:52;;;;;;;111.72;49.53;;;;;;;6.56;100.00;96663.16;5043629;28;20037;-61
2024/03/04 02:38:18;;;;;;;142.07;91.40;;;;;;;6.47;100.00;96664.97;5047692;28;20769;-57
2024/03/04 02:40:44;;;;;;;136.35;53.97;;;;;;;6.40;100.00;96667.59;5042464;28;20132;-60
2024/03/04 02:43:11;;;;;;;138.90;78.20;;;;;;;6.34;100.00;96666.78;5044815;28;20107;-59
2024/03/04 02:45:38;;;;;;;159.23;137.93;;;;;;;6.21;100.00;96671.22;5044129;28;20036;-58
2024/03/04 02:48:04;;;;;;;137.90;56.92;;;;;;;5.94;100.00;96673.06;5041998;28;20029;-58
2024/03/04 02:50:29;;;;;;;155.32;83.88;;;;;;;5.99;100.00;96686.78;5043133;28;20123;-59
2024/03/04 02:52:55;;;;;;;173.93;123.15;;;;;;;6.23;100.00;96687.53;5042944;28;20094;-58
2024/03/04 02:55:20;;;;;;;125.38;60.65;;;;;;;6.30;100.00;96685.75;5043640;28;20379;-59
2024/03/04 02:57:45;;;;;;;104.13;47.97;;;;;;;6.42;100.00;96687.38;5041567;28;20510;-60
2024/03/04 03:00:11;;;;;;;114.25;49.00;;;;;;;6.51;100.00;96692.50;5040492;28;20040;-58
2024/03/04 03:02:37;;;;;;;128.88;68.82;;;;;;;6.51;100.00;96691.63;5041908;28;20016;-58
2024/03/04 03:05:03;;;;;;;102.00;49.03;;;;;;;6.44;100.00;96689.97;5041976;28;20100;-58
2024/03/04 03:07:28;;;;;;;125.63;47.25;;;;;;;6.57;100.00;96699.31;5055684;28;20029;-59
2024/03/04 03:09:54;;;;;;;126.97;43.38;;;;;;;6.59;100.00;96700.19;5042943;28;20025;-59
2024/03/04 03:12:19;;;;;;;138.93;58.35;;;;;;;6.67;100.00;96701.81;5045483;28;20044;-58
2024/03/04 03:14:44;;;;;;;107.43;38.40;;;;;;;6.75;100.00;96695.72;5045280;28;20029;-59
2024/03/04 03:17:10;;;;;;;109.63;33.72;;;;;;;6.87;100.00;96705.09;5047710;28;20072;-59
2024/03/04 03:19:36;;;;;;;84.63;29.58;;;;;;;6.62;100.00;96705.34;5046740;28;20519;-57
2024/03/04 03:22:03;;;;;;;98.85;34.42;;;;;;;6.69;100.00;96705.25;5045869;28;20032;-60
2024/03/04 03:24:28;;;;;;;111.90;32.85;;;;;;;6.75;100.00;96715.53;5044686;28;20103;-59
2024/03/04 03:26:54;;;;;;;75.95;31.05;;;;;;;6.83;100.00;96713.75;5045228;28;20037;-58
2024/03/04 03:29:20;;;;;;;119.00;30.17;;;;;;;6.87;100.00;96718.00;5046904;28;20158;-59
2024/03/04 03:31:45;;;;;;;95.80;21.75;;;;;;;6.74;100.00;96721.56;5046307;28;20029;-58
2024/03/04 03:34:11;;;;;;;93.25;21.70;;;;;;;6.68;100.00;96719.06;5045152;28;20074;-61
2024/03/04 03:36:40;;;;;;;115.30;22.92;;;;;;;6.50;100.00;96732.09;5045800;28;20130;-57
2024/03/04 03:39:09;;;;;;;97.82;24.05;;;;;;;6.21;100.00;96733.19;5046958;28;20040;-58
2024/03/04 03:41:35;;;;;;;103.65;21.35;;;;;;;5.98;100.00;96735.84;5042784;28;20044;-60
2024/03/04 03:44:00;;;;;;;102.18;27.70;;;;;;;6.04;100.00;96732.38;5045230;28;20056;-57
2024/03/04 03:46:25;;;;;;;118.80;28.23;;;;;;;5.84;100.00;96731.63;5044664;28;20503;-58
2024/03/04 03:48:51;;;;;;;81.70;29.00;;;;;;;5.57;100.00;96736.00;5048108;28;20043;-57
2024/03/04 03:51:16;;;;;;;97.22;28.92;;;;;;;5.71;100.00;96738.53;5042960;28;20504;-58
2024/03/04 03:53:41;;;;;;;90.28;28.55;;;;;;;5.82;100.00;96743.66;5046274;28;20104;-61
2024/03/04 03:56:07;;;;;;;92.38;29.65;;;;;;;5.21;100.00;96750.72;5045556;28;20044;-61
2024/03/04 03:58:32;;;;;;;108.78;32.13;;;;;;;5.30;100.00;96757.56;5047171;28;20025;-62
2024/03/04 04:00:57;;;;;;;88.75;27.98;;;;;;;5.42;100.00;96754.13;5044778;28;20392;-61
2024/03/04 04:03:23;;;;;;;122.30;30.98;;;;;;;5.53;100.00;96760.09;5040814;28;20024;-57
2024/03/04 04:05:48;;;;;;;108.55;30.90;;;;;;;5.62;100.00;96763.50;5045955;28;20037;-56
2024/03/04 04:08:14;;;;;;;95.13;28.95;;;;;;;5.62;100.00;96763.50;5045614;28;20037;-60
2024/03/04 04:10:39;;;;;;;96.28;28.92;;;;;;;4.86;100.00;96767.94;5045582;28;20097;-58
2024/03/04 04:13:05;;;;;;;132.10;29.65;;;;;;;5.26;100.00;96761.88;5045618;28;20021;-58
2024/03/04 04:15:30;;;;;;;110.53;29.65;;;;;;;5.47;100.00;96757.53;5045029;28;20138;-58
2024/03/04 04:17:56;;;;;;;110.70;33.42;;;;;;;5.00;100.00;96777.38;5043342;28;20032;-60
2024/03/04 04:20:21;;;;;;;104.38;30.30;;;;;;;4.84;100.00;96779.09;5044202;28;20068;-60
2024/03/04 04:22:47;;;;;;;100.78;28.83;;;;;;;5.07;100.00;96786.81;5043690;28;20040;-59
2024/03/04 04:25:13;;;;;;;116.22;30.25;;;;;;;5.41;100.00;96788.50;5043836;28;20036;-58
2024/03/04 04:27:39;;;;;;;127.00;28.50;;;;;;;5.43;100.00;96797.09;5036207;28;20369;-58
2024/03/04 04:30:06;;;;;;;88.15;27.15;;;;;;;5.18;100.00;96807.44;5043215;28;20854;-57
2024/03/04 04:32:32;;;;;;;123.10;35.92;;;;;;;4.87;100.00;96803.16;5041637;28;20037;-57
2024/03/04 04:34:57;;;;;;;78.68;31.63;;;;;;;4.39;100.00;96815.97;5044669;28;20104;-57
2024/03/04 04:37:23;;;;;;;90.20;31.48;;;;;;;4.49;100.00;96820.28;5043403;28;20309;-58
2024/03/04 04:39:48;;;;;;;147.05;33.72;;;;;;;4.61;100.00;96818.59;5044157;28;20789;-59
2024/03/04 04:42:14;;;;;;;112.93;30.58;;;;;;;4.97;100.00;96826.34;5043202;28;20072;-60
2024/03/04 04:44:39;;;;;;;83.20;31.27;;;;;;;5.10;100.00;96830.66;5044020;28;20060;-57
2024/03/04 04:47:05;;;;;;;118.25;29.98;;;;;;;4.76;100.00;96830.63;5044939;28;20037;-59
2024/03/04 04:49:30;;;;;;;115.28;31.33;;;;;;;5.07;100.00;96840.94;5043918;28;20016;-59
2024/03/04 04:51:55;;;;;;;91.25;30.95;;;;;;;5.07;100.00;96834.09;5044041;28;20037;-58
2024/03/04 04:54:21;;;;;;;111.90;34.75;;;;;;;5.07;100.00;96834.09;5042830;28;20013;-59
2024/03/04 04:56:48;;;;;;;87.47;28.50;;;;;;;4.69;100.00;96838.34;5034813;28;20033;-59
2024/03/04 04:59:14;;;;;;;93.22;29.52;;;;;;;5.11;100.00;96839.22;5044190;28;20074;-57
2024/03/04 05:01:40;;;;;;;136.65;30.52;;;;;;;4.88;100.00;96843.53;5034391;28;20201;-60
2024/03/04 05:04:06;;;;;;;101.18;39.78;;;;;;;4.32;100.00;96845.13;5044781;28;20090;-59
2024/03/04 05:06:31;;;;;;;131.23;27.45;;;;;;;4.39;100.00;96850.28;5043350;28;20033;-59
2024/03/04 05:08:57;;;;;;;101.53;29.08;;;;;;;4.66;100.00;96850.34;5044044;28;20499;-57
2024/03/04 05:11:22;;;;;;;78.95;20.88;;;;;;;4.68;100.00;96846.09;5042959;28;20033;-59
2024/03/04 05:13:48;;;;;;;101.68;31.02;;;;;;;4.15;100.00;96846.78;5044056;28;20676;-58
2024/03/04 05:16:14;;;;;;;106.30;27.10;;;;;;;3.91;100.00;96852.69;5046540;28;20068;-59
2024/03/04 05:18:40;;;;;;;107.55;28.02;;;;;;;4.10;100.00;96850.19;5043705;28;20028;-58
2024/03/04 05:21:05;;;;;;;118.18;28.15;;;;;;;4.46;100.00;96858.03;5041720;28;20036;-58
2024/03/04 05:23:31;;;;;;;117.65;26.70;;;;;;;4.37;100.00;96858.88;5043046;28;20024;-57
2024/03/04 05:25:57;;;;;;;88.38;28.42;;;;;;;4.72;100.00;96863.25;5044667;28;20561;-60
2024/03/04 05:28:23;;;;;;;100.20;30.35;;;;;;;4.83;100.00;96868.44;5042852;28;20024;-57
2024/03/04 05:30:49;;;;;;;91.00;31.55;;;;;;;4.68;100.00;96877.84;5043526;28;20421;-59
2024/03/04 05:33:15;;;;;;;88.15;27.25;;;;;;;4.66;100.00;96886.41;5041407;28;20021;-59
2024/03/04 05:35:40;;;;;;;150.05;27.30;;;;;;;3.98;100.00;96881.88;5042864;28;20047;-63
2024/03/04 05:38:06;;;;;;;110.82;28.08;;;;;;;3.70;100.00;96889.44;5041413;28;20065;-58
2024/03/04 05:40:31;;;;;;;117.68;29.15;;;;;;;4.28;100.00;96893.16;5044013;28;20548;-60
2024/03/04 05:42:57;;;;;;;139.15;29.60;;;;;;;4.71;100.00;96889.84;5044010;28;20071;-58
2024/03/04 05:45:22;;;;;;;88.40;25.02;;;;;;;4.54;100.00;96892.41;5045916;28;20024;-61
2024/03/04 05:47:48;;;;;;;89.15;28.15;;;;;;;4.54;100.00;96897.56;5043459;28;20338;-61
2024/03/04 05:50:14;;;;;;;121.05;26.02;;;;;;;4.64;100.00;96903.59;5043275;28;20039;-59
2024/03/04 05:52:40;;;;;;;124.88;28.85;;;;;;;4.19;100.00;96916.31;5043140;28;20013;-60
2024/03/04 05:55:06;;;;;;;101.85;33.00;;;;;;;4.37;100.00;96912.91;5042672;28;20029;-59
2024/03/04 05:57:32;;;;;;;150.65;32.35;;;;;;;4.46;100.00;96919.84;5042675;28;20436;-58
2024/03/04 05:59:58;;;;;;;124.10;29.17;;;;;;;4.95;100.00;96924.28;5042900;28;20017;-59
2024/03/04 06:02:23;;;;;;;97.25;34.67;;;;;;;5.20;100.00;96924.31;5042053;28;20436;-58
2024/03/04 06:04:48;;;;;;;133.45;33.00;;;;;;;5.47;100.00;96927.75;5041085;28;20020;-58
2024/03/04 06:07:15;;;;;;;92.70;27.15;;;;;;;5.35;100.00;96936.34;5042465;28;20032;-59
2024/03/04 06:09:41;;;;;;;109.07;29.98;;;;;;;4.79;100.00;96937.09;5042112;28;20454;-59
2024/03/04 06:12:08;;;;;;;89.10;29.58;;;;;;;5.19;100.00;96938.91;5042458;28;20520;-59
2024/03/04 06:14:33;;;;;;;129.75;31.20;;;;;;;4.85;100.00;96938.84;5043158;28;20021;-58
2024/03/04 06:16:58;;;;;;;112.97;28.17;;;;;;;4.13;100.00;96943.69;5042023;28;20029;-60
2024/03/04 06:19:24;;;;;;;90.38;28.88;;;;;;;4.37;100.00;96952.41;5044296;28;20707;-58
2024/03/04 06:21:49;;;;;;;95.38;23.92;;;;;;;5.16;100.00;96963.81;5041152;28;20033;-59
2024/03/04 06:24:14;;;;;;;113.18;29.13;;;;;;;4.76;100.00;96962.00;5041046;28;20085;-58
2024/03/04 06:26:40;;;;;;;131.93;24.05;;;;;;;5.31;100.00;96969.00;5042959;28;20348;-59
2024/03/04 06:29:06;;;;;;;98.25;26.30;;;;;;;5.38;100.00;96971.59;5044972;28;20039;-61
2024/03/04 06:31:31;;;;;;;151.48;48.25;;;;;;;5.70;100.00;96973.31;5043150;28;20511;-58
2024/03/04 06:33:57;;;;;;;99.03;29.63;;;;;;;5.16;100.00;96964.66;5043493;28;20028;-61
2024/03/04 06:36:23;;;;;;;77.47;28.02;;;;;;;5.06;100.00;96970.69;5045303;28;20035;-59
2024/03/04 06:38:48;;;;;;;126.15;29.30;;;;;;;4.86;100.00;96974.03;5043177;28;20020;-60
2024/03/04 06:41:14;;;;;;;106.05;26.58;;;;;;;5.29;100.00;96981.03;5042045;28;20420;-58
2024/03/04 06:43:39;;;;;;;134.35;27.30;;;;;;;6.30;100.00;96994.75;5040995;28;20436;-59
2024/03/04 06:46:05;;;;;;;141.30;49.25;;;;;;;5.98;100.00;96992.22;5040860;28;20033;-59
2024/03/04 06:48:30;;;;;;;107.47;30.52;;;;;;;5.39;100.00;96988.78;5043952;28;20399;-61
2024/03/04 06:50:56;;;;;;;99.47;43.35;;;;;;;5.65;100.00;96987.94;5043845;28;20035;-59
2024/03/04 06:53:21;;;;;;;122.53;32.20;;;;;;;5.43;100.00;96998.25;5040992;28;20020;-58
2024/03/04 06:55:47;;;;;;;118.30;27.38;;;;;;;6.31;100.00;96993.91;5040479;28;20119;-58
2024/03/04 06:58:12;;;;;;;117.97;37.05;;;;;;;6.19;100.00;96999.94;5040820;28;20029;-59
2024/03/04 07:00:37;;;;;;;189.85;36.25;;;;;;;6.00;100.00;97007.69;5040535;28;20485;-60
2024/03/04 07:03:04;;;;;;;120.40;30.02;;;;;;;6.53;100.00;96999.88;5044240;28;20020;-62
2024/03/04 07:05:30;;;;;;;124.07;38.45;;;;;;;6.25;100.00;97007.69;5040605;28;20047;-61
2024/03/04 07:07:56;;;;;;;142.52;32.47;;;;;;;5.72;100.00;97016.31;5043263;28;20021;-58
2024/03/04 07:10:21;;;;;;;116.72;31.88;;;;;;;5.92;100.00;97023.19;5056592;28;20017;-58
2024/03/04 07:12:46;;;;;;;158.20;28.63;;;;;;;6.17;100.00;97019.75;5042286;28;20024;-58
2024/03/04 07:15:12;;;;;;;140.15;27.33;;;;;;;6.12;100.00;97018.03;5040811;28;20016;-59
2024/03/04 07:17:37;;;;;;;123.80;30.38;;;;;;;6.41;100.00;97029.19;5042921;28;20036;-60
2024/03/04 07:20:04;;;;;;;143.52;40.58;;;;;;;7.12;100.00;97022.91;5043811;28;20555;-60
2024/03/04 07:22:29;;;;;;;184.82;105.97;;;;;;;7.17;100.00;97033.22;5040144;28;20044;-61
2024/03/04 07:24:54;;;;;;;118.70;28.42;;;;;;;7.15;100.00;97033.22;5042092;28;20083;-59
2024/03/04 07:27:20;;;;;;;105.15;39.75;;;;;;;7.17;100.00;97035.81;5042822;28;20033;-59
2024/03/04 07:29:45;;;;;;;170.23;47.30;;;;;;;6.90;100.00;97035.94;5040795;28;20294;-59
2024/03/04 07:32:10;;;;;;;135.05;45.65;;;;;;;6.46;100.00;97039.53;5042449;28;20128;-62
2024/03/04 07:34:36;;;;;;;152.98;50.10;;;;;;;6.43;100.00;97044.69;5041940;28;20059;-61
2024/03/04 07:37:01;;;;;;;120.68;38.13;;;;;;;6.28;100.00;97043.84;5055396;28;20673;-60
2024/03/04 07:39:27;;;;;;;95.03;35.30;;;;;;;6.18;100.00;97057.63;5042590;28;20067;-58
2024/03/04 07:41:52;;;;;;;135.52;47.47;;;;;;;6.49;100.00;97060.16;5039830;28;20041;-60
2024/03/04 07:44:18;;;;;;;129.82;43.47;;;;;;;6.87;100.00;97059.19;5040930;28;20246;-58
2024/03/04 07:46:44;;;;;;;142.57;45.05;;;;;;;7.29;100.00;97068.50;5041140;28;20053;-59
2024/03/04 07:49:10;;;;;;;144.35;43.03;;;;;;;7.06;100.00;97066.03;5040596;28;20525;-58
2024/03/04 07:51:35;;;;;;;185.43;55.28;;;;;;;6.80;100.00;97077.31;5040438;28;20127;-57
2024/03/04 07:54:00;;;;;;;106.30;46.97;;;;;;;7.39;100.00;97066.75;5040658;28;20151;-58
2024/03/04 07:56:26;;;;;;;127.63;42.90;;;;;;;7.15;100.00;97076.31;5042580;28;20130;-60
2024/03/04 07:58:51;;;;;;;125.82;44.60;;;;;;;7.74;100.00;97075.13;5045819;28;20115;-61
2024/03/04 08:01:16;;;;;;;139.82;46.30;;;;;;;7.59;100.00;97079.56;5044007;28;20740;-58
2024/03/04 08:03:42;;;;;;;184.10;43.97;;;;;;;7.51;100.00;97079.59;5043842;28;20484;-59
2024/03/04 08:06:08;;;;;;;144.38;50.05;;;;;;;7.37;100.00;97092.63;5045815;28;20064;-58
2024/03/04 08:08:33;;;;;;;129.93;50.70;;;;;;;8.04;100.00;97087.00;5045595;28;20037;-59
2024/03/04 08:10:58;;;;;;;132.82;52.13;;;;;;;7.58;100.00;97088.19;5045617;28;20033;-62
2024/03/04 08:13:26;;;;;;;126.78;60.75;;;;;;;7.39;100.00;97093.44;5061734;28;20025;-58
2024/03/04 08:15:53;;;;;;;127.38;50.03;;;;;;;7.85;100.00;97088.00;5043761;28;20032;-58
2024/03/04 08:18:19;;;;;;;176.38;76.40;;;;;;;7.91;100.00;97096.59;5029062;28;20033;-60
2024/03/04 08:20:45;;;;;;;155.10;56.88;;;;;;;8.81;100.00;97087.22;5042326;28;20649;-57
2024/03/04 08:23:10;;;;;;;166.68;75.43;;;;;;;9.04;100.00;97099.06;5045138;28;20032;-58
2024/03/04 08:25:35;;;;;;;167.95;61.20;;;;;;;8.06;100.00;97102.53;5058510;28;20450;-58
2024/03/04 08:28:01;;;;;;;103.60;61.33;;;;;;;7.97;100.00;97108.63;5043514;28;20064;-56
2024/03/04 08:30:26;;;;;;;121.68;56.78;;;;;;;8.52;100.00;97110.78;5043173;28;20035;-58
2024/03/04 08:32:53;;;;;;;159.10;81.28;;;;;;;9.10;100.00;97103.31;5026922;28;21377;-61
2024/03/04 08:35:19;;;;;;;130.80;59.60;;;;;;;9.76;100.00;97100.72;5042012;28;20028;-58
2024/03/04 08:37:44;;;;;;;150.38;56.40;;;;;;;8.90;100.00;97101.78;5057572;28;20408;-61
2024/03/04 08:40:12;;;;;;;172.65;73.25;;;;;;;10.00;100.00;97109.03;5042394;28;20025;-59
2024/03/04 08:42:41;;;;;;;130.57;58.47;;;;;;;10.36;100.00;97100.69;5042317;28;20483;-57
2024/03/04 08:45:08;;;;;;;117.78;54.17;;;;;;;10.93;100.00;97104.03;5044890;28;20040;-59
2024/03/04 08:47:33;;;;;;;113.30;47.60;;;;;;;11.18;100.00;97095.75;5043766;28;20031;-60
2024/03/04 08:50:00;;;;;;;106.68;28.23;;;;;;;10.85;100.00;97095.53;5044561;28;20020;-57
2024/03/04 08:52:27;;;;;;;138.45;43.63;;;;;;;-148.24;100.00;61531.34;5042421;28;20324;-60
2024/03/04 08:54:53;;;;;;;150.40;47.58;;;;;;;-148.24;100.00;61531.34;5056884;28;20033;-57
2024/03/04 08:57:18;;;;;;;114.00;48.15;;;;;;;-148.24;100.00;61531.34;5044224;28;20405;-57
2024/03/04 08:59:43;;;;;;;172.07;54.92;;;;;;;10.85;100.00;97095.53;5042017;28;20060;-57
2024/03/04 09:02:10;;;;;;;115.25;33.40;;;;;;;12.54;100.00;97096.19;5043447;28;20123;-62
2024/03/04 09:04:35;;;;;;;84.13;31.42;;;;;;;12.59;100.00;97096.91;5042963;28;20617;-59
2024/03/04 09:07:01;;;;;;;125.95;34.20;;;;;;;12.58;100.00;97107.41;5041242;28;20067;-58
2024/03/04 09:09:26;;;;;;;74.97;20.48;;;;;;;12.16;100.00;97106.69;5045544;28;20486;-58
2024/03/04 09:11:52;;;;;;;94.20;21.98;;;;;;;12.77;100.00;97107.78;5043510;28;20032;-60
2024/03/04 09:14:18;;;;;;;111.00;26.55;;;;;;;13.42;100.00;97107.75;5044321;28;20028;-59
2024/03/04 09:16:44;;;;;;;122.53;38.33;;;;;;;13.48;100.00;97110.19;5041142;28;20119;-60
2024/03/04 09:19:10;;;;;;;74.90;21.58;;;;;;;12.86;100.00;97111.88;5059735;28;20346;-60
2024/03/04 09:21:36;;;;;;;115.88;22.63;;;;;;;13.43;100.00;97108.59;5039920;28;20408;-58
2024/03/04 09:24:01;;;;;;;81.10;22.73;;;;;;;13.25;100.00;97114.28;5046962;28;20407;-57
2024/03/04 09:26:26;;;;;;;78.57;22.45;;;;;;;12.58;100.00;97115.25;5042790;28;20494;-60
2024/03/04 09:28:52;;;;;;;128.02;25.75;;;;;;;12.26;100.00;97115.13;5041778;28;20079;-59
2024/03/04 09:31:17;;;;;;;82.35;20.63;;;;;;;11.50;100.00;97124.63;5042091;28;20071;-59
2024/03/04 09:33:46;;;;;;;123.47;25.33;;;;;;;11.78;100.00;97113.59;5040398;28;20024;-60
2024/03/04 09:36:12;;;;;;;108.95;28.35;;;;;;;12.30;100.00;97108.09;5040408;28;20069;-60
2024/03/04 09:38:38;;;;;;;87.53;25.52;;;;;;;12.53;100.00;97117.06;5042801;28;20143;-59
2024/03/04 09:41:03;;;;;;;94.72;23.65;;;;;;;12.68;100.00;97121.03;5040753;28;20048;-59
2024/03/04 09:43:29;;;;;;;97.47;24.10;;;;;;;12.17;100.00;97125.78;5043309;28;20032;-59
2024/03/04 09:45:57;;;;;;;112.35;25.23;;;;;;;12.50;100.00;97128.44;5026708;28;20119;-59
2024/03/04 09:48:25;;;;;;;99.22;27.52;;;;;;;12.59;100.00;97120.38;5042766;28;20024;-58
2024/03/04 09:50:51;;;;;;;115.95;24.40;;;;;;;12.65;100.00;97122.00;5042352;28;20067;-60
2024/03/04 09:53:18;;;;;;;98.82;21.58;;;;;;;12.49;100.00;97129.34;5043180;28;20190;-59
2024/03/04 09:55:43;;;;;;;129.45;24.23;;;;;;;12.03;100.00;97136.50;5042630;28;20039;-58
2024/03/04 09:58:10;;;;;;;100.75;26.02;;;;;;;12.64;100.00;97135.94;5043594;28;20044;-58
2024/03/04 10:00:37;;;;;;;92.03;28.33;;;;;;;11.42;100.00;97143.84;5041131;28;20431;-60
2024/03/04 10:03:06;;;;;;;180.48;71.18;;;;;;;10.03;100.00;97141.00;5041055;28;20074;-60
2024/03/04 10:05:31;;;;;;;159.30;140.90;;;;;;;9.86;100.00;97148.19;5041923;28;20087;-60
2024/03/04 10:07:57;;;;;;;254.85;228.88;;;;;;;9.58;100.00;97144.22;5056969;28;20350;-58
2024/03/04 10:10:22;;;;;;;258.15;214.63;;;;;;;9.22;100.00;97155.06;5040022;28;20910;-59
2024/03/04 10:12:48;;;;;;;248.77;202.90;;;;;;;9.17;100.00;97141.25;5043236;28;20024;-58
2024/03/04 10:15:16;;;;;;;266.85;237.20;;;;;;;9.27;100.00;97149.81;5055706;28;20574;-58
2024/03/04 10:17:41;;;;;;;291.00;252.38;;;;;;;9.29;100.00;97152.38;5042230;28;20028;-60
2024/03/04 10:20:09;;;;;;;275.67;245.75;;;;;;;9.23;100.00;97150.72;5022908;28;20020;-59
2024/03/04 10:22:39;;;;;;;216.05;179.85;;;;;;;9.20;100.00;97150.75;5041346;28;20589;-57
2024/03/04 10:25:06;;;;;;;232.82;189.15;;;;;;;9.38;100.00;97165.25;5042818;28;20039;-61
2024/03/04 10:27:32;;;;;;;184.00;158.70;;;;;;;9.46;100.00;97158.22;5043873;28;20213;-58
2024/03/04 10:30:09;;;;;;;272.70;161.40;;;;;;;9.35;100.00;97173.06;5039265;28;20222;-59
2024/03/04 10:32:38;;;;;;;110.60;41.97;;;;;;;10.58;100.00;97173.16;5042265;28;20091;-57
2024/03/04 10:35:04;;;;;;;118.57;36.67;;;;;;;11.16;100.00;97163.44;5043074;28;20028;-61
2024/03/04 10:37:33;;;;;;;108.10;39.13;;;;;;;11.22;100.00;97172.91;5041720;28;20071;-58
2024/03/04 10:39:59;;;;;;;147.85;29.10;;;;;;;10.95;100.00;97169.91;5038047;28;20028;-59
2024/03/04 10:42:24;;;;;;;119.03;22.27;;;;;;;11.03;100.00;97178.41;5039613;28;20045;-60
2024/03/04 10:44:52;;;;;;;114.20;25.80;;;;;;;11.15;100.00;97186.91;5041404;28;20380;-59
2024/03/04 10:47:20;;;;;;;103.72;32.17;;;;;;;11.29;100.00;97179.69;5043132;28;20476;-61
2024/03/04 10:49:49;;;;;;;129.15;24.00;;;;;;;11.43;100.00;97187.22;5042255;28;20067;-60
2024/03/04 10:52:14;;;;;;;87.72;21.60;;;;;;;11.55;100.00;97183.50;5032263;28;20044;-59
2024/03/04 10:54:41;;;;;;;97.75;25.05;;;;;;;11.85;100.00;97183.75;5041203;28;20090;-60
2024/03/04 10:57:25;;;;;;;84.65;23.63;;;;;;;11.65;100.00;97180.75;5040562;28;20557;-59
2024/03/04 10:59:53;;;;;;;161.65;37.17;;;;;;;11.39;100.00;97190.78;5039155;28;20090;-61
2024/03/04 11:02:24;;;;;;;93.65;22.67;;;;;;;11.81;100.00;97196.91;5039225;28;20045;-58
2024/03/04 11:04:51;;;;;;;119.32;61.70;;;;;;;11.51;100.00;97194.88;5042706;28;20330;-58